Time;durP1;ratioP1;P1;durP2;ratioP2;P2;SDS_P1;SDS_P2;PMS_P1;PMS_P2;Temp;Humidity;BMP_temperature;BMP_pressure;BME280_temperature;BME280_humidity;BME280_pressure;Samples;Min_cycle;Max_cycle;Signal;HPM_P1;HPM_P2
2023/03/11 00:02:10;;;;;;;1999.90;999.90;;;;;;;3.79;100.00;93979.03;5084402;28;20271;-64
2023/03/11 00:04:36;;;;;;;1999.90;999.90;;;;;;;3.79;100.00;93989.81;5084483;28;20165;-64
2023/03/11 00:07:05;;;;;;;1999.90;999.90;;;;;;;3.72;100.00;93994.50;5084342;28;20172;-64
2023/03/11 00:09:30;;;;;;;1999.90;999.90;;;;;;;3.75;100.00;94004.50;5084701;28;20177;-63
2023/03/11 00:11:55;;;;;;;1999.90;999.90;;;;;;;3.67;100.00;94003.03;5084041;28;20215;-63
2023/03/11 00:14:21;;;;;;;1999.90;999.90;;;;;;;3.67;100.00;93992.97;5083852;28;20381;-63
2023/03/11 00:16:46;;;;;;;1999.90;999.90;;;;;;;3.53;100.00;93993.81;5083786;28;20165;-63
2023/03/11 00:19:12;;;;;;;1999.90;999.90;;;;;;;3.39;100.00;94009.31;5083936;28;20169;-63
2023/03/11 00:21:37;;;;;;;1999.90;999.90;;;;;;;3.47;100.00;94011.56;5083783;28;20215;-63
2023/03/11 00:24:02;;;;;;;1999.90;999.90;;;;;;;3.40;100.00;94011.59;5083782;28;20177;-61
2023/03/11 00:26:28;;;;;;;1999.90;999.90;;;;;;;3.35;100.00;94012.00;5083975;28;20237;-61
2023/03/11 00:28:54;;;;;;;1999.90;999.90;;;;;;;3.34;100.00;94013.16;5084270;28;20185;-62
2023/03/11 00:31:20;;;;;;;1999.90;999.90;;;;;;;3.27;100.00;94023.97;5084038;28;20157;-61
2023/03/11 00:33:46;;;;;;;1999.90;999.90;;;;;;;3.26;100.00;94014.34;5084441;28;20161;-61
2023/03/11 00:36:27;;;;;;;1999.90;999.90;;;;;;;3.20;100.00;94025.91;5083689;28;20229;-61
2023/03/11 00:38:53;;;;;;;1999.90;999.90;;;;;;;3.14;100.00;94027.50;5084054;28;20161;-61
2023/03/11 00:41:19;;;;;;;1999.90;999.90;;;;;;;3.08;100.00;94021.72;5087427;28;20197;-62
2023/03/11 00:43:44;;;;;;;1999.90;999.90;;;;;;;3.08;100.00;94010.94;5087791;28;20348;-61
2023/03/11 00:46:10;;;;;;;1999.90;999.90;;;;;;;3.09;100.00;94023.25;5087568;28;20203;-61
2023/03/11 00:48:35;;;;;;;1999.90;999.90;;;;;;;3.07;100.00;94025.56;5087530;28;20191;-61
2023/03/11 00:51:00;;;;;;;1999.90;999.90;;;;;;;3.02;100.00;94028.66;5087458;28;20165;-62
2023/03/11 00:53:26;;;;;;;1999.90;999.90;;;;;;;3.00;100.00;94044.47;5087437;28;20164;-62
2023/03/11 00:55:51;;;;;;;1999.90;999.90;;;;;;;2.96;100.00;94041.00;5087950;28;20169;-63
2023/03/11 00:58:17;;;;;;;1999.90;999.90;;;;;;;2.89;100.00;94051.03;5087942;28;20164;-62
2023/03/11 01:00:42;;;;;;;1999.90;999.90;;;;;;;2.92;100.00;94067.19;5087831;28;20238;-63
2023/03/11 01:03:08;;;;;;;1999.90;999.90;;;;;;;2.87;100.00;94051.41;5087873;28;20204;-62
2023/03/11 01:05:34;;;;;;;1999.90;999.90;;;;;;;2.87;100.00;94070.28;5087220;28;20172;-64
2023/03/11 01:08:00;;;;;;;1999.90;999.90;;;;;;;2.90;100.00;94060.66;5087676;28;20172;-63
2023/03/11 01:10:26;;;;;;;1999.90;999.90;;;;;;;2.93;100.00;94070.66;5087527;28;20166;-63
2023/03/11 01:12:52;;;;;;;1999.90;999.90;;;;;;;2.96;100.00;94061.81;5087158;28;20170;-63
2023/03/11 01:15:22;;;;;;;1999.90;999.90;;;;;;;2.94;100.00;94059.50;5086931;28;20172;-63
2023/03/11 01:17:47;;;;;;;1999.90;999.90;;;;;;;3.00;100.00;94063.34;5087069;28;20173;-62
2023/03/11 01:20:13;;;;;;;1999.90;999.90;;;;;;;3.00;100.00;94066.03;5087356;28;20180;-63
2023/03/11 01:22:38;;;;;;;1999.90;999.90;;;;;;;2.99;100.00;94061.78;5086922;28;20370;-62
2023/03/11 01:25:04;;;;;;;1999.90;999.90;;;;;;;2.91;100.00;94052.19;5087444;28;20174;-62
2023/03/11 01:27:30;;;;;;;1999.90;999.90;;;;;;;2.91;100.00;94056.78;5086808;28;20247;-62
2023/03/11 01:29:55;;;;;;;1999.90;999.90;;;;;;;2.86;100.00;94057.97;5086767;28;20170;-62
2023/03/11 01:32:20;;;;;;;1999.90;999.90;;;;;;;2.82;100.00;94067.22;5087206;28;20173;-63
2023/03/11 01:34:46;;;;;;;1999.90;999.90;;;;;;;2.76;100.00;94063.34;5086811;28;20174;-63
2023/03/11 01:37:11;;;;;;;1999.90;999.90;;;;;;;2.76;100.00;94058.75;5086820;28;20169;-62
2023/03/11 01:39:36;;;;;;;1999.90;999.90;;;;;;;2.75;100.00;94086.84;5086626;28;20178;-62
2023/03/11 01:42:02;;;;;;;1999.90;999.90;;;;;;;2.78;100.00;94083.38;5086495;28;20224;-62
2023/03/11 01:44:27;;;;;;;1999.90;999.90;;;;;;;2.77;100.00;94081.84;5086491;28;20170;-61
2023/03/11 01:46:53;;;;;;;1999.90;999.90;;;;;;;2.80;100.00;94086.47;5086483;28;20169;-62
2023/03/11 01:49:22;;;;;;;1999.90;999.90;;;;;;;2.77;100.00;94081.84;5086545;28;20420;-62
2023/03/11 01:51:50;;;;;;;1999.90;999.90;;;;;;;2.81;100.00;94087.25;5085602;28;20179;-61
2023/03/11 01:54:29;;;;;;;1999.90;999.90;;;;;;;2.73;100.00;94086.47;5086699;28;20189;-61
2023/03/11 01:56:55;;;;;;;1999.90;999.90;;;;;;;2.75;100.00;94078.00;5086839;28;20188;-61
2023/03/11 01:59:25;;;;;;;1999.90;999.90;;;;;;;2.63;100.00;94083.78;5086799;28;20320;-62
2023/03/11 02:01:56;;;;;;;1999.90;999.90;;;;;;;2.64;100.00;94085.31;5086637;28;20197;-61
2023/03/11 02:04:22;;;;;;;1999.90;999.90;;;;;;;2.57;100.00;94094.16;5086149;28;20244;-61
2023/03/11 02:06:48;;;;;;;1999.90;999.90;;;;;;;2.59;100.00;94105.31;5086727;28;20234;-61
2023/03/11 02:09:13;;;;;;;1999.90;999.90;;;;;;;2.52;100.00;94083.00;5086181;28;20201;-60
2023/03/11 02:11:39;;;;;;;1999.90;999.90;;;;;;;2.45;100.00;94097.22;5086028;28;20219;-60
2023/03/11 02:14:06;;;;;;;1999.90;999.90;;;;;;;2.46;100.00;94087.22;5086020;28;20191;-61
2023/03/11 02:16:32;;;;;;;1999.90;999.90;;;;;;;2.38;100.00;94081.06;5085949;28;20530;-61
2023/03/11 02:19:03;;;;;;;1999.90;999.90;;;;;;;2.40;100.00;94094.91;5085995;28;20173;-61
2023/03/11 02:21:31;;;;;;;1999.90;999.90;;;;;;;2.32;100.00;94087.19;5086250;28;20201;-61
2023/03/11 02:24:21;;;;;;;1999.90;999.90;;;;;;;2.31;100.00;94091.81;5086357;28;20211;-61
2023/03/11 02:27:08;;;;;;;1999.90;999.90;;;;;;;2.28;100.00;94097.97;5085971;28;20487;-62
2023/03/11 02:29:34;;;;;;;1999.90;999.90;;;;;;;2.24;100.00;94102.59;5085879;28;20200;-62
2023/03/11 02:32:03;;;;;;;1999.90;999.90;;;;;;;2.23;100.00;94089.50;5085996;28;20184;-62
2023/03/11 02:34:32;;;;;;;1999.90;999.90;;;;;;;2.17;100.00;94102.56;5086006;28;20189;-62
2023/03/11 02:36:58;;;;;;;1999.90;999.90;;;;;;;2.24;100.00;94124.13;5086128;28;20165;-63
2023/03/11 02:39:35;;;;;;;1999.90;999.90;;;;;;;2.21;100.00;94108.72;5086057;28;20263;-64
2023/03/11 02:42:06;;;;;;;1999.90;999.90;;;;;;;2.15;100.00;94123.69;5085959;28;20251;-64
2023/03/11 02:44:32;;;;;;;1999.90;999.90;;;;;;;2.17;100.00;94118.72;5085940;28;20214;-64
2023/03/11 02:46:59;;;;;;;1999.90;999.90;;;;;;;2.08;100.00;94109.47;5085825;28;20176;-64
2023/03/11 02:49:24;;;;;;;1999.90;999.90;;;;;;;2.05;100.00;94121.78;5085278;28;20196;-64
2023/03/11 02:51:51;;;;;;;1999.90;999.90;;;;;;;2.09;100.00;94106.41;5086034;28;20193;-64
2023/03/11 02:54:16;;;;;;;1999.90;999.90;;;;;;;2.09;100.00;94116.38;5085460;28;20188;-64
2023/03/11 02:56:41;;;;;;;1999.90;999.90;;;;;;;2.08;100.00;94126.38;5085459;28;20172;-64
2023/03/11 02:59:07;;;;;;;1999.90;999.90;;;;;;;2.08;100.00;94110.22;5085203;28;20198;-64
2023/03/11 03:01:32;;;;;;;1999.90;999.90;;;;;;;2.15;100.00;94126.41;5085190;28;20165;-64
2023/03/11 03:03:57;;;;;;;1999.90;999.90;;;;;;;2.08;100.00;94114.84;5084556;28;20196;-64
2023/03/11 03:06:23;;;;;;;1999.90;999.90;;;;;;;1.99;100.00;94122.50;5085517;28;20165;-65
2023/03/11 03:08:49;;;;;;;1999.90;999.90;;;;;;;1.98;100.00;94120.97;5085473;28;20447;-64
2023/03/11 03:11:14;;;;;;;1999.90;999.90;;;;;;;1.99;100.00;94130.56;5084785;28;20238;-63
2023/03/11 03:13:40;;;;;;;1999.90;999.90;;;;;;;1.90;100.00;94122.84;5084844;28;20169;-63
2023/03/11 03:16:05;;;;;;;1999.90;999.90;;;;;;;1.94;100.00;94131.72;5084443;28;20177;-64
2023/03/11 03:18:31;;;;;;;1999.90;999.90;;;;;;;1.99;100.00;94134.03;5084708;28;20214;-63
2023/03/11 03:20:56;;;;;;;1999.90;999.90;;;;;;;1.92;100.00;94152.84;5084623;28;20173;-63
2023/03/11 03:23:22;;;;;;;1999.90;999.90;;;;;;;1.88;100.00;94133.25;5084863;28;20170;-64
2023/03/11 03:25:47;;;;;;;1999.90;999.90;;;;;;;1.90;100.00;94140.94;5084526;28;20240;-63
2023/03/11 03:28:13;;;;;;;1999.90;999.90;;;;;;;1.85;100.00;94150.13;5084657;28;20258;-63
2023/03/11 03:30:38;;;;;;;1999.90;999.90;;;;;;;1.83;100.00;94157.84;5084412;28;20192;-63
2023/03/11 03:33:05;;;;;;;1999.90;999.90;;;;;;;1.82;100.00;94153.56;5084491;28;20384;-63
2023/03/11 03:35:32;;;;;;;1999.90;999.90;;;;;;;1.77;100.00;94156.63;5084471;28;20161;-63
2023/03/11 03:37:59;;;;;;;1999.90;999.90;;;;;;;1.73;100.00;94150.47;5084935;28;20180;-63
2023/03/11 03:40:24;;;;;;;1999.90;999.90;;;;;;;1.69;100.00;94147.00;5084794;28;20164;-62
2023/03/11 03:42:49;;;;;;;1999.90;999.90;;;;;;;1.67;100.00;94160.03;5084578;28;20357;-62
2023/03/11 03:45:15;;;;;;;1999.90;999.90;;;;;;;1.66;100.00;94163.09;5083963;28;20169;-62
2023/03/11 03:47:40;;;;;;;1999.90;999.90;;;;;;;1.71;100.00;94174.28;5084816;28;20195;-62
2023/03/11 03:50:08;;;;;;;1999.90;999.90;;;;;;;1.67;100.00;94170.06;5084387;28;20295;-63
2023/03/11 03:52:35;;;;;;;1999.90;999.90;;;;;;;1.64;100.00;94173.50;5084039;28;20199;-63
2023/03/11 03:55:00;;;;;;;1999.90;999.90;;;;;;;1.64;100.00;94166.16;5084000;28;20181;-63
2023/03/11 03:57:27;;;;;;;1999.90;999.90;;;;;;;1.55;100.00;94156.91;5084370;28;20280;-62
2023/03/11 03:59:52;;;;;;;1999.90;999.90;;;;;;;1.55;100.00;94168.44;5083999;28;20161;-62
2023/03/11 04:02:18;;;;;;;1999.90;999.90;;;;;;;1.52;100.00;94157.66;5084033;28;20172;-62
2023/03/11 04:04:43;;;;;;;1999.90;999.90;;;;;;;1.54;100.00;94166.91;5084130;28;20165;-62
2023/03/11 04:07:09;;;;;;;1999.90;999.90;;;;;;;1.46;100.00;94176.06;5084017;28;20168;-62
2023/03/11 04:09:34;;;;;;;1999.90;999.90;;;;;;;1.48;100.00;94179.16;5084395;28;20248;-62
2023/03/11 04:11:59;;;;;;;1999.90;999.90;;;;;;;1.47;100.00;94174.94;5083874;28;20195;-62
2023/03/11 04:14:25;;;;;;;1999.90;999.90;;;;;;;1.52;100.00;94174.56;5083761;28;20199;-62
2023/03/11 04:16:50;;;;;;;1999.90;999.90;;;;;;;1.52;100.00;94179.94;5083799;28;20183;-62
2023/03/11 04:19:16;;;;;;;1999.90;999.90;;;;;;;1.51;100.00;94178.41;5083888;28;20164;-62
2023/03/11 04:21:41;;;;;;;1999.90;999.90;;;;;;;1.47;100.00;94172.25;5084251;28;20195;-63
2023/03/11 04:24:07;;;;;;;1999.90;999.90;;;;;;;1.42;100.00;94167.19;5083824;28;20176;-63
2023/03/11 04:26:33;;;;;;;1999.90;999.90;;;;;;;1.41;100.00;94168.34;5083955;28;20217;-63
2023/03/11 04:28:58;;;;;;;1999.90;999.90;;;;;;;1.41;100.00;94167.56;5084317;28;20246;-62
2023/03/11 04:31:24;;;;;;;1999.90;999.90;;;;;;;1.44;100.00;94159.53;5083535;28;20204;-63
2023/03/11 04:33:49;;;;;;;1999.90;999.90;;;;;;;1.45;100.00;94166.47;5083865;28;20172;-63
2023/03/11 04:36:14;;;;;;;1999.90;999.90;;;;;;;1.42;100.00;94169.88;5084097;28;20169;-63
2023/03/11 04:38:40;;;;;;;1999.90;999.90;;;;;;;1.37;100.00;94172.94;5083474;28;20172;-63
2023/03/11 04:41:06;;;;;;;1999.90;999.90;;;;;;;1.37;100.00;94167.56;5084156;28;20165;-63
2023/03/11 04:43:32;;;;;;;1999.90;999.90;;;;;;;1.33;100.00;94174.84;5083619;28;20192;-63
2023/03/11 04:45:58;;;;;;;1999.90;999.90;;;;;;;1.31;100.00;94179.81;5084032;28;20168;-62
2023/03/11 04:48:25;;;;;;;1999.90;999.90;;;;;;;1.28;100.00;94183.25;5084136;28;20176;-63
2023/03/11 04:50:51;;;;;;;1999.90;999.90;;;;;;;1.28;100.00;94185.94;5083787;28;20211;-63
2023/03/11 04:53:16;;;;;;;1999.90;999.90;;;;;;;1.27;100.00;94189.75;5083500;28;20241;-64
2023/03/11 04:55:41;;;;;;;1999.90;999.90;;;;;;;1.27;100.00;94189.75;5083461;28;20256;-63
2023/03/11 04:58:08;;;;;;;1999.90;999.90;;;;;;;1.32;100.00;94191.34;5083421;28;20171;-63
2023/03/11 05:00:33;;;;;;;1999.90;999.90;;;;;;;1.36;100.00;94200.97;5083895;28;20182;-63
2023/03/11 05:02:58;;;;;;;1999.90;999.90;;;;;;;1.39;100.00;94197.56;5083492;28;20168;-63
2023/03/11 05:05:24;;;;;;;1999.90;999.90;;;;;;;1.43;100.00;94198.34;5083368;28;20230;-64
2023/03/11 05:07:49;;;;;;;1999.90;999.90;;;;;;;1.50;100.00;94203.78;5083043;28;20202;-63
2023/03/11 05:10:21;;;;;;;1999.90;999.90;;;;;;;1.60;100.00;94203.03;5083348;28;20254;-63
2023/03/11 05:12:50;;;;;;;1999.90;999.90;;;;;;;1.67;100.00;94200.41;5083945;28;20172;-63
2023/03/11 05:15:16;;;;;;;1999.90;999.90;;;;;;;1.72;100.00;94212.72;5083543;28;20176;-63
2023/03/11 05:17:41;;;;;;;1999.90;999.90;;;;;;;1.82;100.00;94214.72;5083762;28;20169;-63
2023/03/11 05:20:08;;;;;;;1999.90;999.90;;;;;;;1.89;100.00;94220.88;5083774;28;20169;-63
2023/03/11 05:22:33;;;;;;;1999.90;999.90;;;;;;;1.90;100.00;94218.97;5083186;28;20176;-63
2023/03/11 05:24:59;;;;;;;1999.90;999.90;;;;;;;1.87;100.00;94207.06;5083855;28;20169;-63
2023/03/11 05:27:24;;;;;;;1999.90;999.90;;;;;;;1.92;100.00;94214.75;5086684;28;20294;-64
2023/03/11 05:29:49;;;;;;;1999.90;999.90;;;;;;;1.96;100.00;94220.91;5087488;28;20165;-63
2023/03/11 05:32:15;;;;;;;1999.90;999.90;;;;;;;2.03;100.00;94217.50;5086722;28;20196;-63
2023/03/11 05:34:41;;;;;;;1999.90;999.90;;;;;;;2.02;100.00;94224.81;5086779;28;20165;-63
2023/03/11 05:37:06;;;;;;;1999.90;999.90;;;;;;;2.01;100.00;94234.00;5087076;28;20175;-63
2023/03/11 05:39:32;;;;;;;1999.90;999.90;;;;;;;1.98;100.00;94245.56;5086677;28;20169;-63
2023/03/11 05:41:58;;;;;;;1999.90;999.90;;;;;;;1.98;100.00;94242.88;5086742;28;20169;-62
2023/03/11 05:44:23;;;;;;;1999.90;999.90;;;;;;;1.99;100.00;94236.31;5086571;28;20166;-63
2023/03/11 05:46:48;;;;;;;1999.90;999.90;;;;;;;1.94;100.00;94236.69;5086467;28;20180;-62
2023/03/11 05:49:14;;;;;;;1999.90;999.90;;;;;;;1.96;100.00;94238.97;5086827;28;20173;-63
2023/03/11 05:51:39;;;;;;;1999.90;999.90;;;;;;;1.87;100.00;94243.94;5086557;28;20197;-62
2023/03/11 05:54:10;;;;;;;1999.90;999.90;;;;;;;1.92;100.00;94257.03;5086470;28;20197;-62
2023/03/11 05:56:36;;;;;;;1999.90;999.90;;;;;;;1.95;100.00;94248.22;5086894;28;20169;-62
2023/03/11 05:59:01;;;;;;;1999.90;999.90;;;;;;;1.98;100.00;94250.94;5086335;28;20169;-62
2023/03/11 06:01:27;;;;;;;1999.90;999.90;;;;;;;2.04;100.00;94249.41;5086028;28;20170;-62
2023/03/11 06:03:52;;;;;;;1999.90;999.90;;;;;;;2.02;100.00;94251.72;5085927;28;20169;-62
2023/03/11 06:06:17;;;;;;;1999.90;999.90;;;;;;;2.04;100.00;94249.41;5086094;28;20215;-62
2023/03/11 06:08:48;;;;;;;1999.90;999.90;;;;;;;2.05;100.00;94245.59;5086201;28;20177;-63
2023/03/11 06:11:14;;;;;;;1999.90;999.90;;;;;;;2.05;100.00;94247.50;5086600;28;20373;-62
2023/03/11 06:13:39;;;;;;;1999.90;999.90;;;;;;;2.09;100.00;94257.16;5085814;28;20201;-63
2023/03/11 06:16:05;;;;;;;1999.90;999.90;;;;;;;2.06;100.00;94252.50;5086142;28;20200;-63
2023/03/11 06:18:31;;;;;;;1999.90;999.90;;;;;;;2.08;100.00;94260.97;5086701;28;20174;-63
2023/03/11 06:20:58;;;;;;;1999.90;999.90;;;;;;;2.07;100.00;94262.13;5085900;28;20220;-62
2023/03/11 06:23:24;;;;;;;1999.90;999.90;;;;;;;2.10;100.00;94274.84;5085910;28;20481;-62
2023/03/11 06:26:03;;;;;;;1999.90;999.90;;;;;;;2.04;100.00;94270.19;5086306;28;20223;-62
2023/03/11 06:28:30;;;;;;;1999.90;999.90;;;;;;;2.09;100.00;94275.22;5085850;28;20247;-62
2023/03/11 06:30:57;;;;;;;1999.90;999.90;;;;;;;2.04;100.00;94275.56;5085706;28;20201;-61
2023/03/11 06:33:23;;;;;;;1999.90;999.90;;;;;;;2.14;100.00;94281.00;5086242;28;20215;-61
2023/03/11 06:35:58;;;;;;;1999.90;999.90;;;;;;;2.23;100.00;94284.13;5086032;28;20177;-62
2023/03/11 06:38:24;;;;;;;1999.90;999.90;;;;;;;2.28;100.00;94286.47;5085727;28;20248;-61
2023/03/11 06:40:49;;;;;;;1999.90;999.90;;;;;;;2.17;100.00;94293.72;5085989;28;20169;-61
2023/03/11 06:43:14;;;;;;;1999.90;999.90;;;;;;;2.20;100.00;94294.88;5085581;28;20169;-61
2023/03/11 06:45:40;;;;;;;1999.90;999.90;;;;;;;2.31;100.00;94299.19;5085421;28;20201;-61
2023/03/11 06:48:05;;;;;;;1999.90;999.90;;;;;;;2.36;100.00;94304.19;5085473;28;20244;-61
2023/03/11 06:50:31;;;;;;;1999.90;999.90;;;;;;;2.59;100.00;94301.22;5085334;28;20180;-62
2023/03/11 06:52:57;;;;;;;1999.90;999.90;;;;;;;2.66;100.00;94293.94;5085882;28;20181;-61
2023/03/11 06:55:22;;;;;;;1999.90;999.90;;;;;;;2.75;100.00;94302.44;5085603;28;20189;-61
2023/03/11 06:57:48;;;;;;;1999.90;999.90;;;;;;;2.76;100.00;94301.28;5085172;28;20388;-63
2023/03/11 07:00:15;;;;;;;1999.90;999.90;;;;;;;3.02;100.00;94311.75;5085078;28;20169;-62
2023/03/11 07:02:40;;;;;;;1999.90;999.90;;;;;;;2.75;100.00;94318.59;5085599;28;20173;-62
2023/03/11 07:05:06;;;;;;;1999.90;999.90;;;;;;;3.38;100.00;94324.16;5085257;28;20176;-62
2023/03/11 07:07:31;;;;;;;1999.90;999.90;;;;;;;3.87;100.00;94320.72;5084878;28;20170;-60
2023/03/11 07:09:57;;;;;;;1999.90;999.90;;;;;;;3.98;100.00;94328.78;5084915;28;20276;-62
2023/03/11 07:12:24;;;;;;;1999.90;999.90;;;;;;;3.74;100.00;94326.84;5084941;28;20202;-62
2023/03/11 07:14:56;;;;;;;1999.90;999.90;;;;;;;3.88;100.00;94330.34;5085156;28;20208;-64
2023/03/11 07:17:22;;;;;;;1999.90;999.90;;;;;;;4.20;100.00;94343.81;5085149;28;20173;-62
2023/03/11 07:19:47;;;;;;;1999.90;999.90;;;;;;;5.01;100.00;94338.94;5084777;28;20185;-62
2023/03/11 07:22:13;;;;;;;1999.90;999.90;;;;;;;5.65;99.25;94345.56;5084646;28;20351;-62
2023/03/11 07:24:39;;;;;;;1999.90;999.90;;;;;;;5.71;94.56;94360.19;5085010;28;20173;-62
2023/03/11 07:27:05;;;;;;;1999.90;999.90;;;;;;;6.00;93.54;94358.84;5084324;28;20232;-60
2023/03/11 07:29:33;;;;;;;1999.90;999.90;;;;;;;5.59;96.18;94361.44;5084817;28;20184;-60
2023/03/11 07:31:58;;;;;;;1999.90;999.90;;;;;;;5.34;99.35;94357.31;5084719;28;20199;-62
2023/03/11 07:34:24;;;;;;;1999.90;999.90;;;;;;;5.39;100.00;94376.63;5084028;28;20535;-63
2023/03/11 07:36:50;;;;;;;1999.90;999.90;;;;;;;5.94;98.98;94363.16;5084436;28;20199;-62
2023/03/11 07:39:16;;;;;;;1999.90;999.90;;;;;;;5.76;98.58;94367.91;5084384;28;20175;-62
2023/03/11 07:41:43;;;;;;;1999.90;999.90;;;;;;;6.78;95.21;94373.25;5084852;28;20179;-62
2023/03/11 07:44:11;;;;;;;1999.90;999.90;;;;;;;8.24;86.87;94385.31;5084289;28;20201;-61
2023/03/11 07:46:36;;;;;;;1999.90;999.90;;;;;;;9.52;75.06;94375.94;5084221;28;20184;-59
2023/03/11 07:49:03;;;;;;;1999.90;999.90;;;;;;;10.60;64.93;94387.53;5083706;28;20179;-60
2023/03/11 07:51:31;;;;;;;1999.90;999.90;;;;;;;11.46;58.99;94382.88;5084151;28;20239;-60
2023/03/11 07:53:57;;;;;;;1999.90;999.90;;;;;;;11.60;56.81;94387.97;5084161;28;20547;-62
2023/03/11 07:56:30;;;;;;;1999.90;999.90;;;;;;;11.97;55.02;94395.50;5084274;28;20192;-61
2023/03/11 07:58:58;;;;;;;1999.90;999.90;;;;;;;12.19;52.42;94407.34;5084938;28;20169;-62
2023/03/11 08:01:26;;;;;;;1999.90;999.90;;;;;;;12.23;52.40;94400.56;5084331;28;20199;-63
2023/03/11 08:03:56;;;;;;;1999.90;999.90;;;;;;;13.15;50.77;94392.91;5084537;28;20208;-62
2023/03/11 08:06:25;;;;;;;1999.90;999.90;;;;;;;12.44;49.23;94407.34;5084264;28;20173;-61
2023/03/11 08:08:50;;;;;;;1999.90;999.90;;;;;;;12.33;49.80;94396.72;5084393;28;20357;-60
2023/03/11 08:11:17;;;;;;;1999.90;999.90;;;;;;;11.61;51.85;94400.44;5083825;28;20212;-61
2023/03/11 08:13:44;;;;;;;1999.90;999.90;;;;;;;12.28;49.20;94410.94;5084567;28;20177;-61
2023/03/11 08:16:13;;;;;;;1999.90;999.90;;;;;;;14.19;47.12;94397.72;5084088;28;20188;-62
2023/03/11 08:18:38;;;;;;;1999.90;999.90;;;;;;;13.43;45.58;94400.13;5084259;28;20451;-63
2023/03/11 08:21:09;;;;;;;1999.90;999.90;;;;;;;13.83;45.88;94406.50;5084142;28;20207;-62
2023/03/11 08:23:34;;;;;;;1999.90;999.90;;;;;;;13.47;45.23;94406.25;5084387;28;20173;-62
2023/03/11 08:26:04;;;;;;;1999.90;999.90;;;;;;;12.53;45.66;94415.69;5083991;28;20184;-62
2023/03/11 08:28:29;;;;;;;1999.90;999.90;;;;;;;11.15;48.91;94417.31;5083252;28;20228;-60
2023/03/11 08:30:55;;;;;;;1999.90;999.90;;;;;;;11.02;52.76;94424.69;5084207;28;20205;-62
2023/03/11 08:33:20;;;;;;;1999.90;999.90;;;;;;;10.60;55.21;94415.59;5083693;28;20180;-62
2023/03/11 08:35:45;;;;;;;1999.90;999.90;;;;;;;10.95;53.46;94427.59;5083653;28;20177;-62
2023/03/11 08:38:11;;;;;;;1999.90;999.90;;;;;;;11.06;54.74;94425.34;5083264;28;20173;-62
2023/03/11 08:40:36;;;;;;;1999.90;999.90;;;;;;;12.75;48.94;94422.75;5083876;28;20173;-62
2023/03/11 08:43:01;;;;;;;1999.90;999.90;;;;;;;14.60;45.06;94420.06;5084046;28;20198;-63
2023/03/11 08:45:29;;;;;;;1999.90;999.90;;;;;;;14.48;42.49;94429.16;5083575;28;20168;-63
2023/03/11 08:47:55;;;;;;;1999.90;999.90;;;;;;;14.17;44.24;94425.63;5083522;28;20538;-63
2023/03/11 08:50:20;;;;;;;1999.90;999.90;;;;;;;13.31;44.94;94431.09;5084111;28;20185;-62
2023/03/11 08:52:46;;;;;;;1999.90;999.90;;;;;;;13.07;44.55;94441.69;5083412;28;20196;-62
2023/03/11 08:55:15;;;;;;;1999.90;999.90;;;;;;;12.46;45.45;94435.06;5083472;28;20220;-62
2023/03/11 08:57:41;;;;;;;1999.90;999.90;;;;;;;12.51;46.71;94434.50;5083496;28;20173;-62
2023/03/11 09:00:08;;;;;;;1999.90;999.90;;;;;;;11.47;48.14;94433.66;5084290;28;20389;-62
2023/03/11 09:02:33;;;;;;;1999.90;999.90;;;;;;;10.81;48.21;94441.63;5087751;28;20177;-61
2023/03/11 09:04:59;;;;;;;1999.90;999.90;;;;;;;10.29;51.08;94444.41;5087365;28;20466;-61
2023/03/11 09:07:24;;;;;;;1999.90;999.90;;;;;;;11.12;49.25;94434.56;5087310;28;20181;-61
2023/03/11 09:09:49;;;;;;;1999.90;999.90;;;;;;;11.67;48.62;94442.47;5087646;28;20169;-61
2023/03/11 09:12:15;;;;;;;1999.90;999.90;;;;;;;11.06;50.26;94441.75;5087696;28;20197;-62
2023/03/11 09:14:41;;;;;;;1999.90;999.90;;;;;;;11.46;49.28;94441.06;5086994;28;20192;-61
2023/03/11 09:17:09;;;;;;;1999.90;999.90;;;;;;;12.22;47.25;94444.78;5087487;28;20174;-61
2023/03/11 09:19:35;;;;;;;1999.90;999.90;;;;;;;12.29;46.53;94444.56;5087023;28;20461;-61
2023/03/11 09:22:01;;;;;;;1999.90;999.90;;;;;;;11.04;48.42;94444.16;5087252;28;20242;-60
2023/03/11 09:24:27;;;;;;;1999.90;999.90;;;;;;;10.78;48.92;94442.47;5086897;28;20169;-61
2023/03/11 09:26:52;;;;;;;1999.90;999.90;;;;;;;11.15;50.41;94447.38;5087222;28;20228;-62
2023/03/11 09:29:17;;;;;;;1999.90;999.90;;;;;;;11.86;47.40;94449.75;5086854;28;20169;-61
2023/03/11 09:31:43;;;;;;;1999.90;999.90;;;;;;;11.95;46.57;94442.44;5086742;28;20389;-61
2023/03/11 09:34:11;;;;;;;1999.90;999.90;;;;;;;12.03;46.83;94437.53;5086654;28;20181;-61
2023/03/11 09:36:39;;;;;;;1999.90;999.90;;;;;;;11.76;46.41;94435.19;5086509;28;20169;-62
2023/03/11 09:39:04;;;;;;;1999.90;999.90;;;;;;;12.15;47.25;94461.41;5087194;28;20244;-62
2023/03/11 09:41:53;;;;;;;1999.90;999.90;;;;;;;12.21;44.66;94454.22;5086488;28;20165;-62
2023/03/11 09:44:26;;;;;;;1999.90;999.90;;;;;;;11.49;51.52;94450.38;5087133;28;20222;-58
2023/03/11 09:47:05;;;;;;;1999.90;999.90;;;;;;;10.78;50.31;94450.66;5086644;28;20465;-59
2023/03/11 09:49:44;;;;;;;1999.90;999.90;;;;;;;10.40;48.77;94444.16;5087195;28;20200;-58
2023/03/11 09:52:11;;;;;;;1999.90;999.90;;;;;;;9.66;50.66;94443.75;5086901;28;20246;-58
2023/03/11 09:54:40;;;;;;;1999.90;999.90;;;;;;;9.22;53.40;94449.69;5086268;28;20273;-62
2023/03/11 09:57:11;;;;;;;1999.90;999.90;;;;;;;9.06;52.83;94451.53;5086585;28;20184;-62
2023/03/11 09:59:39;;;;;;;1999.90;999.90;;;;;;;9.50;50.86;94454.59;5086784;28;20166;-61
2023/03/11 10:02:04;;;;;;;1999.90;999.90;;;;;;;8.77;52.22;94456.72;5086268;28;20469;-62
2023/03/11 10:04:40;;;;;;;1999.90;999.90;;;;;;;10.00;50.41;94460.59;5086236;28;20188;-62
2023/03/11 10:07:13;;;;;;;1999.90;999.90;;;;;;;9.40;51.54;94466.47;5086796;28;20218;-62
2023/03/11 10:09:50;;;;;;;1999.90;999.90;;;;;;;9.05;50.46;94478.03;5086574;28;20388;-62
2023/03/11 10:12:26;;;;;;;1999.90;999.90;;;;;;;9.83;49.65;94485.50;5086016;28;20332;-62
2023/03/11 10:15:09;;;;;;;1999.90;999.90;;;;;;;10.35;47.61;94480.13;5085689;28;20172;-61
2023/03/11 10:18:12;;;;;;;1999.90;999.90;;;;;;;11.36;46.06;94482.38;5086542;28;20364;-60
2023/03/11 10:21:01;;;;;;;1999.90;999.90;;;;;;;12.47;42.74;94477.66;5085896;28;20199;-62
2023/03/11 10:23:48;;;;;;;1999.90;999.90;;;;;;;13.13;41.11;94474.81;5086421;28;20169;-61
2023/03/11 10:26:22;;;;;;;1999.90;999.90;;;;;;;12.80;40.98;94468.81;5086178;28;20165;-61
2023/03/11 10:28:56;;;;;;;1999.90;999.90;;;;;;;12.85;39.90;94464.72;5086522;28;20184;-61
2023/03/11 10:31:45;;;;;;;1999.90;999.90;;;;;;;13.79;39.59;94471.72;5086106;28;20199;-62
2023/03/11 10:34:27;;;;;;;1999.90;999.90;;;;;;;14.10;37.88;94464.34;5086191;28;20226;-61
2023/03/11 10:36:57;;;;;;;1999.90;999.90;;;;;;;13.96;36.49;94486.03;5085280;28;20165;-62
2023/03/11 10:39:24;;;;;;;1999.90;999.90;;;;;;;12.88;37.94;94480.28;5086063;28;20244;-62
2023/03/11 10:41:56;;;;;;;1999.90;999.90;;;;;;;12.71;38.07;94489.81;5085479;28;20181;-63
2023/03/11 10:44:27;;;;;;;1999.90;999.90;;;;;;;13.17;37.86;94491.91;5085879;28;20349;-63
2023/03/11 10:46:53;;;;;;;1999.90;999.90;;;;;;;13.86;38.03;94487.19;5085918;28;20188;-62
2023/03/11 10:49:18;;;;;;;1999.90;999.90;;;;;;;14.00;37.77;94487.44;5085841;28;20522;-62
2023/03/11 10:51:49;;;;;;;1999.90;999.90;;;;;;;14.36;37.25;94479.47;5085154;28;20272;-62
2023/03/11 10:54:36;;;;;;;1999.90;999.90;;;;;;;13.67;37.57;94486.28;5085433;28;20196;-63
2023/03/11 10:57:23;;;;;;;1999.90;999.90;;;;;;;12.49;38.80;94486.19;5085724;28;20165;-62